createdAt,value
2022-08-04T00:00:05.754Z,15.08
2022-08-04T00:01:14.732Z,15.07
2022-08-04T00:02:25.579Z,15.07
2022-08-04T00:03:31.853Z,15.06
2022-08-04T00:04:42.183Z,15.05
2022-08-04T00:05:56.532Z,15.05
2022-08-04T00:07:06.440Z,15.05
2022-08-04T00:08:18.444Z,15.06
2022-08-04T00:09:27.652Z,15.07
2022-08-04T00:10:34.656Z,15.08
2022-08-04T00:11:41.980Z,15.06
2022-08-04T00:12:53.785Z,15.01
2022-08-04T00:14:05.926Z,15.00
2022-08-04T00:15:15.009Z,14.99
2022-08-04T00:16:22.099Z,15.01
2022-08-04T00:17:33.253Z,14.98
2022-08-04T00:18:42.938Z,14.97
2022-08-04T00:19:48.981Z,14.98
2022-08-04T00:20:56.770Z,14.97
2022-08-04T00:22:15.410Z,14.92
2022-08-04T00:23:19.174Z,14.88
2022-08-04T00:24:24.371Z,14.87
2022-08-04T00:25:28.810Z,14.88
2022-08-04T00:26:34.052Z,14.88
2022-08-04T00:27:37.831Z,14.89
2022-08-04T00:28:42.999Z,14.92
2022-08-04T00:30:06.599Z,14.92
2022-08-04T00:31:12.301Z,14.87
2022-08-04T00:32:33.670Z,14.85
2022-08-04T00:33:39.796Z,14.84
2022-08-04T00:34:48.959Z,14.84
2022-08-04T00:35:57.312Z,14.85
2022-08-04T00:37:02.190Z,14.83
2022-08-04T00:38:06.139Z,14.82
2022-08-04T00:39:14.284Z,14.82
2022-08-04T00:40:25.840Z,14.81
2022-08-04T00:41:56.476Z,14.81
2022-08-04T00:43:11.752Z,14.80
2022-08-04T00:44:25.087Z,14.79
2022-08-04T00:46:17.558Z,14.79
2022-08-04T00:47:30.071Z,14.76
2022-08-04T00:48:51.676Z,14.75
2022-08-04T00:50:07.700Z,14.74
2022-08-04T00:51:16.771Z,14.74
2022-08-04T00:52:34.971Z,14.72
2022-08-04T00:53:50.307Z,14.70
2022-08-04T00:55:10.211Z,14.65
2022-08-04T00:56:28.061Z,14.61
2022-08-04T00:57:41.639Z,14.58
2022-08-04T00:58:56.147Z,14.57
2022-08-04T01:00:12.396Z,14.55
2022-08-04T01:01:28.445Z,14.52
2022-08-04T01:02:39.583Z,14.52
2022-08-04T01:04:00.218Z,14.49
2022-08-04T01:05:06.760Z,14.47
2022-08-04T01:06:28.493Z,14.45
2022-08-04T01:08:15.901Z,14.42
2022-08-04T01:09:42.474Z,14.39
2022-08-04T01:10:53.414Z,14.40
2022-08-04T01:12:19.365Z,14.41
2022-08-04T01:13:36.329Z,14.44
2022-08-04T01:14:49.719Z,14.46
2022-08-04T01:16:08.459Z,14.48
2022-08-04T01:17:26.362Z,14.47
2022-08-04T01:18:51.463Z,14.44
2022-08-04T01:20:05.904Z,14.42
2022-08-04T01:21:59.010Z,14.41
2022-08-04T01:23:39.779Z,14.37
2022-08-04T01:25:13.081Z,14.35
2022-08-04T01:29:36.990Z,14.28
2022-08-04T01:30:59.918Z,14.25
2022-08-04T01:32:09.591Z,14.25
2022-08-04T01:33:15.102Z,14.24
2022-08-04T01:34:22.772Z,14.25
2022-08-04T01:35:47.995Z,14.25
2022-08-04T01:37:09.778Z,14.26
2022-08-04T01:38:21.859Z,14.24
2022-08-04T01:39:42.241Z,14.23
2022-08-04T01:40:47.920Z,14.22
2022-08-04T01:41:58.384Z,14.23
2022-08-04T01:43:07.401Z,14.24
2022-08-04T01:44:12.393Z,14.22
2022-08-04T01:45:22.722Z,14.20
2022-08-04T01:46:27.514Z,14.18
2022-08-04T01:47:41.550Z,14.16
2022-08-04T01:48:48.401Z,14.15
2022-08-04T01:49:53.781Z,14.17
2022-08-04T01:50:59.998Z,14.17
2022-08-04T01:52:05.580Z,14.17
2022-08-04T01:53:10.972Z,14.15
2022-08-04T01:54:17.431Z,14.15
2022-08-04T01:55:23.774Z,14.14
2022-08-04T01:56:48.771Z,14.12
2022-08-04T01:58:02.407Z,14.12
2022-08-04T01:59:16.399Z,14.12
2022-08-04T02:02:20.198Z,14.04
2022-08-04T02:04:18.777Z,13.97
2022-08-04T02:04:55.020Z,13.95
2022-08-04T02:06:18.974Z,13.95
2022-08-04T02:07:35.184Z,13.94
2022-08-04T02:08:53.775Z,13.92
2022-08-04T02:10:06.801Z,13.90
2022-08-04T02:12:27.787Z,13.87
2022-08-04T02:13:38.645Z,13.86
2022-08-04T02:14:56.000Z,13.87
2022-08-04T02:16:07.179Z,13.88
2022-08-04T02:18:54.429Z,13.85
2022-08-04T02:20:09.087Z,13.84
2022-08-04T02:21:15.481Z,13.83
2022-08-04T02:22:19.965Z,13.82
2022-08-04T02:23:31.692Z,13.82
2022-08-04T02:26:39.000Z,13.79
2022-08-04T02:28:04.932Z,13.78
2022-08-04T02:29:15.524Z,13.77
2022-08-04T02:30:20.017Z,13.77
2022-08-04T02:31:29.787Z,13.76
2022-08-04T02:32:40.089Z,13.76
2022-08-04T02:33:47.330Z,13.75
2022-08-04T02:34:55.960Z,13.75
2022-08-04T02:36:03.325Z,13.75
2022-08-04T02:37:07.091Z,13.73
2022-08-04T02:38:18.340Z,13.74
2022-08-04T02:39:41.446Z,13.73
2022-08-04T02:40:52.522Z,13.73
2022-08-04T02:41:57.687Z,13.73
2022-08-04T02:43:04.803Z,13.75
2022-08-04T02:44:12.195Z,13.74
2022-08-04T02:45:19.520Z,13.74
2022-08-04T02:46:25.182Z,13.74
2022-08-04T02:48:19.349Z,13.73
2022-08-04T02:48:56.511Z,13.70
2022-08-04T02:49:59.982Z,13.70
2022-08-04T02:51:07.599Z,13.69
2022-08-04T02:52:33.292Z,13.70
2022-08-04T02:53:37.998Z,13.66
2022-08-04T02:54:43.517Z,13.64
2022-08-04T02:55:56.962Z,13.62
2022-08-04T02:57:04.591Z,13.59
2022-08-04T02:58:13.403Z,13.59
2022-08-04T02:59:20.306Z,13.55
2022-08-04T03:00:26.547Z,13.54
2022-08-04T03:01:31.870Z,13.55
2022-08-04T03:02:44.030Z,13.54
2022-08-04T03:03:53.246Z,13.52
2022-08-04T03:04:58.763Z,13.50
2022-08-04T03:06:31.619Z,13.49
2022-08-04T03:08:05.839Z,13.44
2022-08-04T03:09:44.235Z,13.36
2022-08-04T03:11:24.874Z,13.27
2022-08-04T03:13:09.973Z,13.26
2022-08-04T03:14:34.974Z,13.26
2022-08-04T03:15:56.481Z,13.27
2022-08-04T03:17:33.722Z,13.29
2022-08-04T03:19:17.687Z,13.28
2022-08-04T03:21:09.362Z,13.26
2022-08-04T03:23:17.337Z,13.23
2022-08-04T03:24:51.465Z,13.21
2022-08-04T03:26:25.844Z,13.22
2022-08-04T03:28:02.143Z,13.28
2022-08-04T03:29:37.106Z,13.35
2022-08-04T03:30:55.442Z,13.39
2022-08-04T03:32:33.183Z,13.42
2022-08-04T03:33:52.466Z,13.43
2022-08-04T03:35:04.631Z,13.46
2022-08-04T03:36:41.514Z,13.49
2022-08-04T03:38:03.804Z,13.52
2022-08-04T03:39:52.859Z,13.56
2022-08-04T03:41:16.559Z,13.60
2022-08-04T03:43:57.818Z,13.64
2022-08-04T03:45:23.371Z,13.66
2022-08-04T03:46:56.519Z,13.70
2022-08-04T03:48:11.612Z,13.72
2022-08-04T03:49:40.853Z,13.76
2022-08-04T03:51:36.096Z,13.77
2022-08-04T03:53:10.490Z,13.78
2022-08-04T03:54:41.463Z,13.79
2022-08-04T03:56:20.657Z,13.82
2022-08-04T03:57:57.200Z,13.90
2022-08-04T03:59:25.368Z,13.95
2022-08-04T04:00:33.107Z,14.00
2022-08-04T04:02:02.567Z,14.07
2022-08-04T04:03:39.115Z,14.18
2022-08-04T04:05:06.703Z,14.26
2022-08-04T04:06:53.950Z,14.34
2022-08-04T04:08:45.187Z,14.43
2022-08-04T04:10:11.559Z,14.50
2022-08-04T04:11:54.274Z,14.58
2022-08-04T04:13:26.967Z,14.69
2022-08-04T04:14:49.226Z,14.78
2022-08-04T04:16:02.626Z,14.86
2022-08-04T04:17:28.143Z,14.96
2022-08-04T04:18:53.997Z,15.07
2022-08-04T04:20:27.371Z,15.19
2022-08-04T04:21:43.292Z,15.29
2022-08-04T04:23:00.246Z,15.36
2022-08-04T04:24:19.046Z,15.43
2022-08-04T04:25:34.412Z,15.53
2022-08-04T04:26:54.457Z,15.62
2022-08-04T04:28:45.621Z,15.70
2022-08-04T04:29:59.553Z,15.79
2022-08-04T04:31:14.165Z,15.83
2022-08-04T04:32:24.041Z,15.89
2022-08-04T04:33:39.212Z,15.95
2022-08-04T04:34:51.309Z,16.05
2022-08-04T04:36:01.267Z,16.12
2022-08-04T04:37:14.984Z,16.21
2022-08-04T04:38:43.547Z,16.28
2022-08-04T04:39:57.844Z,16.34
2022-08-04T04:41:23.895Z,16.42
2022-08-04T04:42:39.236Z,16.50
2022-08-04T04:44:02.606Z,16.57
2022-08-04T04:45:28.946Z,16.64
2022-08-04T04:46:38.819Z,16.68
2022-08-04T04:48:09.789Z,16.72
2022-08-04T04:49:23.327Z,16.76
2022-08-04T04:50:40.093Z,16.81
2022-08-04T04:51:50.565Z,16.89
2022-08-04T04:52:57.836Z,16.93
2022-08-04T04:54:08.035Z,16.99
2022-08-04T04:55:19.086Z,17.06
2022-08-04T04:56:29.851Z,17.12
2022-08-04T04:57:54.508Z,17.17
2022-08-04T04:59:00.561Z,17.23
2022-08-04T05:00:08.030Z,17.28
2022-08-04T05:02:26.178Z,17.37
2022-08-04T05:04:02.026Z,17.45
2022-08-04T05:05:28.894Z,17.53
2022-08-04T05:06:54.317Z,17.58
2022-08-04T05:08:43.306Z,17.63
2022-08-04T05:09:57.206Z,17.68
2022-08-04T05:11:28.714Z,17.76
2022-08-04T05:14:32.885Z,17.84
2022-08-04T05:14:35.875Z,17.90
2022-08-04T05:15:48.218Z,18.00
2022-08-04T05:16:56.651Z,18.06
2022-08-04T05:18:03.065Z,18.13
2022-08-04T05:19:15.727Z,18.22
2022-08-04T05:20:24.541Z,18.32
2022-08-04T05:21:37.223Z,18.43
2022-08-04T05:22:44.884Z,18.54
2022-08-04T05:23:50.985Z,18.63
2022-08-04T05:25:02.462Z,18.72
2022-08-04T05:26:10.356Z,18.85
2022-08-04T05:27:19.126Z,18.93
2022-08-04T05:28:26.052Z,19.02
2022-08-04T05:29:33.654Z,19.11
2022-08-04T05:30:48.845Z,19.18
2022-08-04T05:31:54.611Z,19.29
2022-08-04T05:33:03.848Z,19.38
2022-08-04T05:34:11.287Z,19.49
2022-08-04T05:35:50.468Z,19.61
2022-08-04T05:36:49.686Z,19.86
2022-08-04T05:38:01.343Z,20.09
2022-08-04T05:39:06.842Z,20.36
2022-08-04T05:40:13.042Z,20.62
2022-08-04T05:41:17.945Z,20.88
2022-08-04T05:42:23.453Z,21.13
2022-08-04T05:43:27.067Z,21.38
2022-08-04T05:44:31.670Z,21.62
2022-08-04T05:45:38.882Z,21.86
2022-08-04T05:46:43.468Z,22.10
2022-08-04T05:47:48.563Z,22.31
2022-08-04T05:48:52.144Z,22.52
2022-08-04T05:50:01.324Z,22.77
2022-08-04T05:51:07.615Z,23.04
2022-08-04T05:52:12.484Z,23.25
2022-08-04T05:53:16.238Z,23.45
2022-08-04T05:54:22.506Z,23.62
2022-08-04T05:55:48.799Z,23.79
2022-08-04T05:56:55.464Z,24.02
2022-08-04T05:58:00.941Z,24.22
2022-08-04T05:59:05.313Z,24.40
2022-08-04T06:00:38.994Z,24.58
2022-08-04T06:01:54.930Z,24.77
2022-08-04T06:02:59.806Z,24.95
2022-08-04T06:04:05.747Z,25.11
2022-08-04T06:05:16.532Z,25.35
2022-08-04T06:06:20.826Z,25.58
2022-08-04T06:07:26.723Z,25.74
2022-08-04T06:08:30.554Z,25.94
2022-08-04T06:09:35.016Z,26.15
2022-08-04T06:10:39.536Z,26.32
2022-08-04T06:12:03.809Z,26.42
2022-08-04T06:13:46.723Z,26.49
2022-08-04T06:14:42.449Z,26.64
2022-08-04T06:15:46.435Z,26.80
2022-08-04T06:16:51.725Z,26.93
2022-08-04T06:18:34.008Z,27.03
2022-08-04T06:19:59.485Z,27.17
2022-08-04T06:20:54.503Z,27.31
2022-08-04T06:21:59.657Z,27.45
2022-08-04T06:23:06.577Z,27.63
2022-08-04T06:24:12.686Z,27.87
2022-08-04T06:25:20.759Z,28.10
2022-08-04T06:26:25.007Z,28.23
2022-08-04T06:27:31.768Z,28.30
2022-08-04T06:28:37.395Z,28.40
2022-08-04T06:29:51.162Z,28.45
2022-08-04T06:30:55.824Z,28.53
2022-08-04T06:32:31.616Z,28.67
2022-08-04T06:33:54.544Z,28.85
2022-08-04T06:35:02.130Z,29.05
2022-08-04T06:36:07.203Z,29.22
2022-08-04T06:37:11.694Z,29.38
2022-08-04T06:38:29.014Z,29.53
2022-08-04T06:39:33.330Z,29.62
2022-08-04T06:40:37.905Z,29.72
2022-08-04T06:42:02.483Z,29.76
2022-08-04T06:43:07.669Z,29.87
2022-08-04T06:44:13.642Z,29.96
2022-08-04T06:45:18.444Z,30.08
2022-08-04T06:46:22.116Z,30.16
2022-08-04T06:47:26.687Z,30.20
2022-08-04T06:48:33.275Z,30.25
2022-08-04T06:51:24.860Z,30.26
2022-08-04T06:51:26.909Z,30.32
2022-08-04T06:52:27.799Z,30.42
2022-08-04T06:53:30.905Z,30.52
2022-08-04T06:54:35.248Z,30.55
2022-08-04T06:55:38.956Z,30.56
2022-08-04T06:56:45.278Z,30.63
2022-08-04T06:57:49.816Z,30.66
2022-08-04T06:58:53.769Z,30.66
2022-08-04T07:00:01.939Z,30.76
2022-08-04T07:01:06.058Z,30.95
2022-08-04T07:02:14.854Z,31.03
2022-08-04T07:03:19.085Z,31.09
2022-08-04T07:04:23.448Z,31.07
2022-08-04T07:05:27.010Z,31.18
2022-08-04T07:06:31.544Z,31.26
2022-08-04T07:07:37.275Z,31.36
2022-08-04T07:09:00.994Z,31.52
2022-08-04T07:10:05.038Z,31.53
2022-08-04T07:11:09.473Z,31.46
2022-08-04T07:12:14.606Z,31.41
2022-08-04T07:13:19.153Z,31.42
2022-08-04T07:14:24.269Z,31.45
2022-08-04T07:15:29.198Z,31.55
2022-08-04T07:16:33.976Z,31.72
2022-08-04T07:17:38.207Z,31.76
2022-08-04T07:18:42.597Z,31.75
2022-08-04T07:19:45.833Z,31.77
2022-08-04T07:20:50.136Z,31.72
2022-08-04T07:22:16.172Z,31.63
2022-08-04T07:23:20.019Z,31.58
2022-08-04T07:24:30.275Z,31.52
2022-08-04T07:26:00.239Z,31.38
2022-08-04T07:27:00.348Z,31.27
2022-08-04T07:28:03.857Z,31.24
2022-08-04T07:29:08.240Z,31.21
2022-08-04T07:30:13.256Z,31.21
2022-08-04T07:31:35.352Z,31.19
2022-08-04T07:32:41.646Z,31.15
2022-08-04T07:33:45.526Z,31.12
2022-08-04T07:35:20.031Z,31.15
2022-08-04T07:36:49.940Z,31.19
2022-08-04T07:37:55.392Z,31.19
2022-08-04T07:39:00.216Z,31.23
2022-08-04T07:40:05.850Z,31.20
2022-08-04T07:42:34.213Z,31.46
2022-08-04T07:43:38.904Z,31.65
2022-08-04T07:44:43.274Z,31.76
2022-08-04T07:45:46.473Z,31.90
2022-08-04T07:46:52.135Z,31.89
2022-08-04T07:48:04.750Z,31.93
2022-08-04T07:49:10.420Z,31.86
2022-08-04T07:50:13.672Z,31.83
2022-08-04T07:51:18.241Z,31.76
2022-08-04T07:52:22.110Z,31.75
2022-08-04T07:53:54.421Z,31.72
2022-08-04T07:54:52.386Z,31.64
2022-08-04T07:55:56.356Z,31.60
2022-08-04T07:57:01.026Z,31.61
2022-08-04T07:58:04.337Z,31.61
2022-08-04T07:59:08.569Z,31.65
2022-08-04T08:00:15.099Z,31.73
2022-08-04T08:01:20.770Z,31.87
2022-08-04T08:02:25.658Z,31.87
2022-08-04T08:03:29.964Z,31.85
2022-08-04T08:04:33.053Z,31.84
2022-08-04T08:06:16.822Z,31.84
2022-08-04T08:07:01.494Z,31.83
2022-08-04T08:08:05.368Z,31.74
2022-08-04T08:09:12.479Z,31.69
2022-08-04T08:10:18.233Z,31.72
2022-08-04T08:11:23.033Z,31.80
2022-08-04T08:12:35.577Z,31.83
2022-08-04T08:13:51.586Z,31.76
2022-08-04T08:14:56.299Z,31.80
2022-08-04T08:16:01.118Z,31.85
2022-08-04T08:17:05.943Z,31.88
2022-08-04T08:18:10.556Z,31.92
2022-08-04T08:19:14.803Z,32.03
2022-08-04T08:20:29.720Z,32.23
2022-08-04T08:21:33.597Z,32.46
2022-08-04T08:22:38.667Z,32.56
2022-08-04T08:23:42.915Z,32.60
2022-08-04T08:24:46.045Z,32.56
2022-08-04T08:25:50.317Z,32.56
2022-08-04T08:26:54.453Z,32.53
2022-08-04T08:27:57.596Z,32.59
2022-08-04T08:29:01.734Z,32.71
2022-08-04T08:30:06.785Z,32.79
2022-08-04T08:31:12.046Z,32.84
2022-08-04T08:32:17.139Z,32.88
2022-08-04T08:33:22.460Z,32.91
2022-08-04T08:34:28.241Z,33.01
2022-08-04T08:35:39.793Z,33.06
2022-08-04T08:37:03.225Z,33.02
2022-08-04T08:38:08.761Z,33.00
2022-08-04T08:39:15.920Z,33.00
2022-08-04T08:40:41.121Z,33.05
2022-08-04T08:42:16.875Z,33.01
2022-08-04T08:44:00.560Z,33.02
2022-08-04T08:45:20.575Z,33.15
2022-08-04T08:46:50.235Z,33.18
2022-08-04T08:48:17.503Z,33.02
2022-08-04T08:50:01.901Z,32.92
2022-08-04T08:51:38.746Z,32.78
2022-08-04T08:53:04.455Z,32.66
2022-08-04T08:54:27.474Z,32.66
2022-08-04T08:55:41.995Z,32.81
2022-08-04T08:56:54.699Z,32.94
2022-08-04T08:58:09.736Z,32.92
2022-08-04T08:59:37.785Z,32.86
2022-08-04T09:00:49.380Z,32.77
2022-08-04T09:02:03.842Z,32.69
2022-08-04T09:03:31.924Z,32.74
2022-08-04T09:05:15.463Z,32.83
2022-08-04T09:06:41.055Z,32.95
2022-08-04T09:07:59.734Z,32.96
2022-08-04T09:09:31.753Z,33.01
2022-08-04T09:10:42.753Z,32.97
2022-08-04T09:11:55.374Z,32.98
2022-08-04T09:13:04.644Z,33.02
2022-08-04T09:14:15.306Z,33.05
2022-08-04T09:15:25.901Z,33.17
2022-08-04T09:16:36.520Z,33.18
2022-08-04T09:17:45.025Z,33.19
2022-08-04T09:18:56.061Z,33.22
2022-08-04T09:20:04.722Z,33.22
2022-08-04T09:21:17.480Z,33.19
2022-08-04T09:22:33.266Z,33.21
2022-08-04T09:23:42.646Z,33.28
2022-08-04T09:24:54.062Z,33.31
2022-08-04T09:26:04.089Z,33.39
2022-08-04T09:27:13.047Z,33.47
2022-08-04T09:28:43.738Z,33.53
2022-08-04T09:29:51.773Z,33.57
2022-08-04T09:31:00.912Z,33.67
2022-08-04T09:32:10.560Z,33.90
2022-08-04T09:33:45.816Z,34.23
2022-08-04T09:35:02.050Z,34.62
2022-08-04T09:36:26.062Z,34.59
2022-08-04T09:37:45.819Z,34.51
2022-08-04T09:39:04.854Z,34.51
2022-08-04T09:40:31.903Z,34.64
2022-08-04T09:42:10.026Z,34.88
2022-08-04T09:43:21.143Z,34.90
2022-08-04T09:44:52.268Z,34.91
2022-08-04T09:46:01.247Z,34.80
2022-08-04T09:47:10.873Z,34.74
2022-08-04T09:48:21.475Z,34.66
2022-08-04T09:49:31.435Z,34.51
2022-08-04T09:50:37.233Z,34.46
2022-08-04T09:51:58.472Z,34.53
2022-08-04T09:53:28.089Z,34.59
2022-08-04T09:54:42.271Z,34.55
2022-08-04T09:55:54.332Z,34.50
2022-08-04T09:57:08.724Z,34.49
2022-08-04T09:58:22.893Z,34.54
2022-08-04T09:59:30.352Z,34.64
2022-08-04T10:00:42.383Z,34.77
2022-08-04T10:01:46.134Z,34.91
2022-08-04T10:02:54.181Z,35.02
2022-08-04T10:04:01.955Z,35.00
2022-08-04T10:05:23.527Z,34.89
2022-08-04T10:06:47.751Z,34.83
2022-08-04T10:08:16.198Z,34.99
2022-08-04T10:09:36.636Z,35.21
2022-08-04T10:10:53.904Z,35.54
2022-08-04T10:12:06.437Z,35.58
2022-08-04T10:13:21.455Z,35.55
2022-08-04T10:14:50.306Z,35.66
2022-08-04T10:16:06.759Z,35.83
2022-08-04T10:17:23.554Z,35.90
2022-08-04T10:18:41.812Z,35.79
2022-08-04T10:19:45.118Z,35.85
2022-08-04T10:21:06.804Z,35.89
2022-08-04T10:22:28.820Z,35.94
2022-08-04T10:23:56.076Z,36.05
2022-08-04T10:26:02.844Z,36.17
2022-08-04T10:26:39.071Z,36.34
2022-08-04T10:27:47.317Z,36.47
2022-08-04T10:28:54.283Z,36.55
2022-08-04T10:30:02.305Z,36.61
2022-08-04T10:31:10.150Z,36.75
2022-08-04T10:32:20.074Z,36.83
2022-08-04T10:33:26.577Z,36.84
2022-08-04T10:34:37.518Z,36.92
2022-08-04T10:35:47.064Z,36.82
2022-08-04T10:36:57.797Z,36.78
2022-08-04T10:38:08.411Z,36.76
2022-08-04T10:39:42.215Z,36.64
2022-08-04T10:40:45.635Z,36.37
2022-08-04T10:41:56.254Z,36.35
2022-08-04T10:43:21.038Z,36.47
2022-08-04T10:44:42.173Z,36.59
2022-08-04T10:45:56.099Z,36.52
2022-08-04T10:47:04.575Z,36.46
2022-08-04T10:48:13.339Z,36.40
2022-08-04T10:49:22.793Z,36.46
2022-08-04T10:50:28.376Z,36.46
2022-08-04T10:51:57.363Z,36.54
2022-08-04T10:53:08.652Z,36.67
2022-08-04T10:54:17.459Z,36.83
2022-08-04T10:55:24.046Z,36.84
2022-08-04T10:56:56.560Z,36.59
2022-08-04T10:58:03.125Z,36.33
2022-08-04T10:59:12.163Z,36.28
2022-08-04T11:00:20.178Z,36.21
2022-08-04T11:02:01.199Z,36.14
2022-08-04T11:02:53.915Z,35.96
2022-08-04T11:04:01.233Z,35.95
2022-08-04T11:05:14.452Z,35.96
2022-08-04T11:06:20.657Z,36.01
2022-08-04T11:07:25.001Z,36.07
2022-08-04T11:08:35.761Z,36.07
2022-08-04T11:09:40.587Z,36.03
2022-08-04T11:11:01.685Z,35.86
2022-08-04T11:12:10.007Z,35.77
2022-08-04T11:13:21.949Z,35.73
2022-08-04T11:14:38.837Z,35.82
2022-08-04T11:15:47.187Z,35.92
2022-08-04T11:16:56.487Z,35.99
2022-08-04T11:18:03.075Z,36.09
2022-08-04T11:19:22.085Z,36.18
2022-08-04T11:20:50.522Z,36.23
2022-08-04T11:21:58.073Z,36.35
2022-08-04T11:23:06.814Z,36.45
2022-08-04T11:24:18.239Z,36.56
2022-08-04T11:25:24.832Z,36.65
2022-08-04T11:26:37.463Z,36.76
2022-08-04T11:27:57.088Z,36.63
2022-08-04T11:29:07.631Z,36.63
2022-08-04T11:30:13.968Z,36.70
2022-08-04T11:31:22.073Z,36.82
2022-08-04T11:32:32.810Z,36.98
2022-08-04T11:33:43.148Z,37.19
2022-08-04T11:34:52.608Z,37.31
2022-08-04T11:36:02.256Z,37.44
2022-08-04T11:37:14.062Z,37.52
2022-08-04T11:38:24.176Z,37.59
2022-08-04T11:39:37.738Z,37.66
2022-08-04T11:40:55.628Z,37.61
2022-08-04T11:42:13.626Z,37.60
2022-08-04T11:44:00.474Z,37.65
2022-08-04T11:44:48.684Z,37.71
2022-08-04T11:45:55.320Z,37.60
2022-08-04T11:47:04.311Z,37.61
2022-08-04T11:48:10.703Z,37.66
2022-08-04T11:49:23.583Z,37.64
2022-08-04T11:50:32.540Z,37.84
2022-08-04T11:51:37.374Z,38.10
2022-08-04T11:52:44.252Z,38.21
2022-08-04T11:53:48.711Z,38.18
2022-08-04T11:54:55.055Z,38.19
2022-08-04T11:56:09.357Z,38.30
2022-08-04T11:57:15.512Z,38.48
2022-08-04T11:58:18.645Z,38.53
2022-08-04T11:59:24.443Z,38.45
2022-08-04T12:00:31.646Z,38.23
2022-08-04T12:01:39.283Z,38.09
2022-08-04T12:03:03.483Z,38.07
2022-08-04T12:04:14.513Z,38.20
2022-08-04T12:05:32.259Z,38.38
2022-08-04T12:06:56.830Z,38.63
2022-08-04T12:08:15.608Z,38.58
2022-08-04T12:09:29.508Z,38.67
2022-08-04T12:10:43.231Z,38.80
2022-08-04T12:12:04.640Z,38.85
2022-08-04T12:13:13.943Z,38.88
2022-08-04T12:14:28.734Z,38.93
2022-08-04T12:15:49.918Z,38.95
2022-08-04T12:16:58.805Z,39.02
2022-08-04T12:18:10.604Z,39.04
2022-08-04T12:19:18.313Z,39.13
2022-08-04T12:20:31.709Z,39.12
2022-08-04T12:21:53.194Z,39.26
2022-08-04T12:23:00.263Z,39.40
2022-08-04T12:24:08.091Z,39.51
2022-08-04T12:25:14.846Z,39.48
2022-08-04T12:26:38.763Z,39.61
2022-08-04T12:27:45.765Z,39.69
2022-08-04T12:29:09.670Z,39.85
2022-08-04T12:30:58.924Z,39.92
2022-08-04T12:31:45.585Z,39.81
2022-08-04T12:32:54.889Z,39.58
2022-08-04T12:34:04.695Z,39.42
2022-08-04T12:35:17.201Z,39.36
2022-08-04T12:36:25.685Z,39.47
2022-08-04T12:37:38.888Z,39.69
2022-08-04T12:38:48.943Z,39.80
2022-08-04T12:40:28.511Z,39.87
2022-08-04T12:41:25.723Z,40.08
2022-08-04T12:42:35.240Z,40.16
2022-08-04T12:43:39.675Z,40.27
2022-08-04T12:44:44.865Z,40.43
2022-08-04T12:45:51.758Z,40.55
2022-08-04T12:47:28.510Z,40.53
2022-08-04T12:48:21.900Z,40.36
2022-08-04T12:49:26.117Z,40.28
2022-08-04T12:50:31.342Z,40.30
2022-08-04T12:52:07.917Z,40.20
2022-08-04T12:53:03.890Z,39.92
2022-08-04T12:54:08.636Z,39.63
2022-08-04T12:55:13.763Z,39.42
2022-08-04T12:56:25.674Z,39.48
2022-08-04T12:57:30.035Z,39.77
2022-08-04T12:58:43.487Z,40.08
2022-08-04T12:59:57.191Z,40.35
2022-08-04T13:02:08.919Z,40.58
2022-08-04T13:02:33.262Z,40.86
2022-08-04T13:03:41.604Z,40.96
2022-08-04T13:04:51.239Z,40.82
2022-08-04T13:05:56.413Z,40.58
2022-08-04T13:07:05.482Z,40.38
2022-08-04T13:08:09.917Z,40.26
2022-08-04T13:09:18.418Z,40.23
2022-08-04T13:10:23.498Z,40.12
2022-08-04T13:11:39.713Z,39.89
2022-08-04T13:12:45.974Z,39.72
2022-08-04T13:14:17.293Z,39.62
2022-08-04T13:15:23.130Z,39.66
2022-08-04T13:16:34.473Z,39.79
2022-08-04T13:17:50.948Z,39.96
2022-08-04T13:18:55.410Z,39.84
2022-08-04T13:19:59.784Z,39.73
2022-08-04T13:21:21.043Z,39.70
2022-08-04T13:22:29.792Z,39.51
2022-08-04T13:24:10.911Z,39.39
2022-08-04T13:26:41.307Z,39.24
2022-08-04T13:26:42.531Z,39.01
2022-08-04T13:27:55.329Z,38.91
2022-08-04T13:29:01.844Z,38.83
2022-08-04T13:30:22.904Z,38.77
2022-08-04T13:31:35.694Z,38.87
2022-08-04T13:32:40.487Z,38.94
2022-08-04T13:33:46.664Z,39.00
2022-08-04T13:34:53.905Z,39.00
2022-08-04T13:36:00.809Z,39.06
2022-08-04T13:37:05.453Z,39.19
2022-08-04T13:38:10.432Z,39.33
2022-08-04T13:39:17.743Z,39.46
2022-08-04T13:40:24.285Z,39.46
2022-08-04T13:41:36.950Z,39.38
2022-08-04T13:42:49.960Z,39.39
2022-08-04T13:44:18.279Z,39.25
2022-08-04T13:45:24.045Z,39.16
2022-08-04T13:46:50.579Z,38.91
2022-08-04T13:48:15.688Z,38.57
2022-08-04T13:49:42.942Z,38.27
2022-08-04T13:50:49.840Z,38.34
2022-08-04T13:51:58.931Z,38.44
2022-08-04T13:53:04.676Z,38.47
2022-08-04T13:54:08.093Z,38.45
2022-08-04T13:55:25.329Z,38.35
2022-08-04T13:56:32.575Z,38.12
2022-08-04T13:57:45.454Z,37.91
2022-08-04T13:58:57.323Z,37.90
2022-08-04T14:00:08.544Z,37.97
2022-08-04T14:01:17.907Z,37.98
2022-08-04T14:02:33.232Z,37.98
2022-08-04T14:03:53.434Z,38.05
2022-08-04T14:05:05.169Z,38.14
2022-08-04T14:06:14.655Z,38.23
2022-08-04T14:07:21.246Z,38.22
2022-08-04T14:08:27.164Z,38.28
2022-08-04T14:09:36.031Z,38.39
2022-08-04T14:10:40.607Z,38.52
2022-08-04T14:12:09.112Z,38.69
2022-08-04T14:13:10.668Z,38.99
2022-08-04T14:14:21.375Z,39.16
2022-08-04T14:16:02.443Z,39.44
2022-08-04T14:16:59.282Z,39.58
2022-08-04T14:18:18.224Z,39.45
2022-08-04T14:19:22.627Z,39.27
2022-08-04T14:20:27.882Z,39.14
2022-08-04T14:21:37.864Z,38.92
2022-08-04T14:22:40.917Z,38.74
2022-08-04T14:23:50.893Z,38.63
2022-08-04T14:24:57.564Z,38.43
2022-08-04T14:26:01.852Z,38.31
2022-08-04T14:27:06.200Z,38.26
2022-08-04T14:28:10.463Z,38.26
2022-08-04T14:29:26.789Z,38.38
2022-08-04T14:30:35.613Z,38.38
2022-08-04T14:31:55.400Z,38.45
2022-08-04T14:34:02.630Z,38.44
2022-08-04T14:34:31.364Z,38.53
2022-08-04T14:35:50.459Z,38.46
2022-08-04T14:37:17.604Z,38.32
2022-08-04T14:38:19.340Z,38.21
2022-08-04T14:39:41.487Z,37.99
2022-08-04T14:40:45.998Z,37.88
2022-08-04T14:41:52.163Z,37.92
2022-08-04T14:42:56.515Z,38.05
2022-08-04T14:44:02.392Z,38.22
2022-08-04T14:45:09.693Z,38.37
2022-08-04T14:46:14.070Z,38.46
2022-08-04T14:47:17.102Z,38.49
2022-08-04T14:48:22.140Z,38.62
2022-08-04T14:49:26.804Z,38.72
2022-08-04T14:50:39.021Z,38.81
2022-08-04T14:51:45.018Z,38.88
2022-08-04T14:52:48.165Z,38.89
2022-08-04T14:53:52.352Z,38.79
2022-08-04T14:54:55.617Z,38.66
2022-08-04T14:56:01.277Z,38.55
2022-08-04T14:57:07.344Z,38.40
2022-08-04T14:58:35.742Z,38.22
2022-08-04T14:59:44.167Z,38.16
2022-08-04T15:01:10.502Z,38.09
2022-08-04T15:02:17.152Z,38.03
2022-08-04T15:03:21.973Z,38.05
2022-08-04T15:04:26.601Z,38.14
2022-08-04T15:05:55.021Z,38.23
2022-08-04T15:06:55.376Z,38.25
2022-08-04T15:07:59.138Z,38.29
2022-08-04T15:09:05.861Z,38.18
2022-08-04T15:10:09.613Z,38.02
2022-08-04T15:11:23.506Z,37.98
2022-08-04T15:12:28.496Z,37.99
2022-08-04T15:13:32.657Z,38.10
2022-08-04T15:14:38.422Z,38.30
2022-08-04T15:15:42.636Z,38.54
2022-08-04T15:17:27.155Z,38.75
2022-08-04T15:18:31.778Z,38.60
2022-08-04T15:19:36.534Z,38.36
2022-08-04T15:20:42.460Z,38.15
2022-08-04T15:21:46.586Z,38.09
2022-08-04T15:22:50.067Z,38.14
2022-08-04T15:23:54.321Z,38.21
2022-08-04T15:24:58.426Z,38.32
2022-08-04T15:26:03.870Z,38.42
2022-08-04T15:27:08.555Z,38.32
2022-08-04T15:28:14.433Z,38.25
2022-08-04T15:29:22.103Z,38.20
2022-08-04T15:30:25.386Z,38.13
2022-08-04T15:32:06.308Z,38.07
2022-08-04T15:32:59.845Z,37.78
2022-08-04T15:34:03.023Z,37.70
2022-08-04T15:35:12.784Z,37.71
2022-08-04T15:36:21.874Z,37.66
2022-08-04T15:37:30.345Z,37.70
2022-08-04T15:38:38.904Z,37.76
2022-08-04T15:39:46.710Z,37.72
2022-08-04T15:40:58.101Z,37.74
2022-08-04T15:42:16.171Z,37.75
2022-08-04T15:43:44.942Z,37.49
2022-08-04T15:45:05.803Z,37.36
2022-08-04T15:46:42.384Z,37.17
2022-08-04T15:47:34.640Z,36.91
2022-08-04T15:48:39.456Z,36.66
2022-08-04T15:49:44.941Z,36.41
2022-08-04T15:51:05.080Z,36.07
2022-08-04T15:52:12.419Z,35.75
2022-08-04T15:53:22.950Z,35.48
2022-08-04T15:54:27.959Z,35.20
2022-08-04T15:55:37.891Z,34.91
2022-08-04T15:56:48.450Z,34.65
2022-08-04T15:58:07.207Z,34.36
2022-08-04T15:59:10.478Z,34.15